sensor_id;sensor_type;location;lat;lon;timestamp;pressure;altitude;pressure_sealevel;temperature;humidity
18819;BME280;9537;45.594;9.294;2023-06-10T00:00:15;99283.75;;;22.35;79.61
18819;BME280;9537;45.594;9.294;2023-06-10T00:01:17;99279.19;;;22.36;79.74
18819;BME280;9537;45.594;9.294;2023-06-10T00:02:18;99278.09;;;22.37;79.30
18819;BME280;9537;45.594;9.294;2023-06-10T00:03:20;99280.25;;;22.40;78.91
18819;BME280;9537;45.594;9.294;2023-06-10T00:04:23;99286.44;;;22.40;78.63
18819;BME280;9537;45.594;9.294;2023-06-10T00:05:25;99287.56;;;22.44;77.90
18819;BME280;9537;45.594;9.294;2023-06-10T00:06:30;99289.69;;;22.42;77.44
18819;BME280;9537;45.594;9.294;2023-06-10T00:07:38;99284.59;;;22.41;76.36
18819;BME280;9537;45.594;9.294;2023-06-10T00:09:40;99283.75;;;22.40;76.86
18819;BME280;9537;45.594;9.294;2023-06-10T00:10:41;99287.00;;;22.42;76.15
18819;BME280;9537;45.594;9.294;2023-06-10T00:11:43;99290.25;;;22.44;75.74
18819;BME280;9537;45.594;9.294;2023-06-10T00:12:45;99284.88;;;22.44;75.07
18819;BME280;9537;45.594;9.294;2023-06-10T00:13:46;99285.69;;;22.45;75.00
18819;BME280;9537;45.594;9.294;2023-06-10T00:14:47;99285.69;;;22.45;74.53
18819;BME280;9537;45.594;9.294;2023-06-10T00:16:50;99284.59;;;22.41;74.88
18819;BME280;9537;45.594;9.294;2023-06-10T00:17:52;99282.94;;;22.40;74.88
18819;BME280;9537;45.594;9.294;2023-06-10T00:18:55;99282.72;;;22.41;74.91
18819;BME280;9537;45.594;9.294;2023-06-10T00:20:00;99287.56;;;22.44;74.84
18819;BME280;9537;45.594;9.294;2023-06-10T00:21:05;99285.97;;;22.43;75.02
18819;BME280;9537;45.594;9.294;2023-06-10T00:22:07;99280.56;;;22.43;74.87
18819;BME280;9537;45.594;9.294;2023-06-10T00:24:10;99278.16;;;22.47;73.70
18819;BME280;9537;45.594;9.294;2023-06-10T00:25:12;99282.75;;;22.52;73.01
18819;BME280;9537;45.594;9.294;2023-06-10T00:26:14;99284.13;;;22.54;72.72
18819;BME280;9537;45.594;9.294;2023-06-10T00:27:14;99278.72;;;22.54;72.94
18819;BME280;9537;45.594;9.294;2023-06-10T00:28:18;99285.19;;;22.53;72.36
18819;BME280;9537;45.594;9.294;2023-06-10T00:29:19;99276.56;;;22.51;72.18
18819;BME280;9537;45.594;9.294;2023-06-10T00:30:21;99277.38;;;22.52;71.47
18819;BME280;9537;45.594;9.294;2023-06-10T00:31:21;99281.16;;;22.51;71.13
18819;BME280;9537;45.594;9.294;2023-06-10T00:32:23;99284.41;;;22.53;71.21
18819;BME280;9537;45.594;9.294;2023-06-10T00:33:24;99290.06;;;22.56;70.56
18819;BME280;9537;45.594;9.294;2023-06-10T00:34:26;99280.91;;;22.57;69.87
18819;BME280;9537;45.594;9.294;2023-06-10T00:35:27;99277.41;;;22.57;69.76
18819;BME280;9537;45.594;9.294;2023-06-10T00:36:29;99275.50;;;22.52;69.76
18819;BME280;9537;45.594;9.294;2023-06-10T00:37:30;99275.75;;;22.51;69.68
18819;BME280;9537;45.594;9.294;2023-06-10T00:38:32;99276.84;;;22.49;69.65
18819;BME280;9537;45.594;9.294;2023-06-10T00:39:33;99273.84;;;22.46;68.36
18819;BME280;9537;45.594;9.294;2023-06-10T00:40:41;99273.06;;;22.51;67.77
18819;BME280;9537;45.594;9.294;2023-06-10T00:41:42;99266.88;;;22.50;67.87
18819;BME280;9537;45.594;9.294;2023-06-10T00:42:44;99271.97;;;22.46;67.67
18819;BME280;9537;45.594;9.294;2023-06-10T00:43:46;99264.97;;;22.45;66.81
18819;BME280;9537;45.594;9.294;2023-06-10T00:44:48;99264.97;;;22.45;66.93
18819;BME280;9537;45.594;9.294;2023-06-10T00:46:51;99268.47;;;22.46;66.89
18819;BME280;9537;45.594;9.294;2023-06-10T00:47:53;99265.75;;;22.46;67.03
18819;BME280;9537;45.594;9.294;2023-06-10T00:48:55;99263.34;;;22.44;67.40
18819;BME280;9537;45.594;9.294;2023-06-10T00:49:56;99259.84;;;22.44;66.77
18819;BME280;9537;45.594;9.294;2023-06-10T00:50:59;99267.13;;;22.43;66.95
18819;BME280;9537;45.594;9.294;2023-06-10T00:52:01;99267.94;;;22.44;66.88
18819;BME280;9537;45.594;9.294;2023-06-10T00:53:05;99265.25;;;22.44;66.97
18819;BME280;9537;45.594;9.294;2023-06-10T00:55:08;99263.06;;;22.41;67.49
18819;BME280;9537;45.594;9.294;2023-06-10T00:58:15;99264.13;;;22.40;67.73
18819;BME280;9537;45.594;9.294;2023-06-10T00:59:18;99273.00;;;22.40;67.75
18819;BME280;9537;45.594;9.294;2023-06-10T01:01:23;99269.50;;;22.40;67.51
18819;BME280;9537;45.594;9.294;2023-06-10T01:02:25;99270.59;;;22.39;67.31
18819;BME280;9537;45.594;9.294;2023-06-10T01:03:27;99258.50;;;22.41;67.41
18819;BME280;9537;45.594;9.294;2023-06-10T01:04:28;99263.34;;;22.44;67.25
18819;BME280;9537;45.594;9.294;2023-06-10T01:05:31;99262.78;;;22.42;67.19
18819;BME280;9537;45.594;9.294;2023-06-10T01:06:36;99267.13;;;22.43;67.40
18819;BME280;9537;45.594;9.294;2023-06-10T01:07:52;99263.06;;;22.41;67.45
18819;BME280;9537;45.594;9.294;2023-06-10T01:09:02;99262.53;;;22.44;67.34
18819;BME280;9537;45.594;9.294;2023-06-10T01:10:11;99264.97;;;22.45;67.26
18819;BME280;9537;45.594;9.294;2023-06-10T01:11:20;99265.75;;;22.46;66.73
18819;BME280;9537;45.594;9.294;2023-06-10T01:12:29;99263.34;;;22.44;66.80
18819;BME280;9537;45.594;9.294;2023-06-10T01:14:35;99269.53;;;22.45;66.46
18819;BME280;9537;45.594;9.294;2023-06-10T01:15:36;99264.16;;;22.45;66.31
18819;BME280;9537;45.594;9.294;2023-06-10T01:16:38;99261.19;;;22.41;66.36
18819;BME280;9537;45.594;9.294;2023-06-10T01:17:54;99265.75;;;22.41;66.14
18819;BME280;9537;45.594;9.294;2023-06-10T01:18:55;99273.84;;;22.41;66.09
18819;BME280;9537;45.594;9.294;2023-06-10T01:19:58;99263.88;;;22.41;65.73
18819;BME280;9537;45.594;9.294;2023-06-10T01:20:59;99262.50;;;22.39;65.86
18819;BME280;9537;45.594;9.294;2023-06-10T01:22:03;99266.81;;;22.40;65.94
18819;BME280;9537;45.594;9.294;2023-06-10T01:23:03;99267.59;;;22.35;66.25
18819;BME280;9537;45.594;9.294;2023-06-10T01:24:06;99265.16;;;22.34;66.43
18819;BME280;9537;45.594;9.294;2023-06-10T01:25:08;99260.59;;;22.34;66.15
18819;BME280;9537;45.594;9.294;2023-06-10T01:26:12;99259.53;;;22.35;66.04
18819;BME280;9537;45.594;9.294;2023-06-10T01:27:15;99257.38;;;22.37;66.26
18819;BME280;9537;45.594;9.294;2023-06-10T01:28:27;99256.56;;;22.37;66.62
18819;BME280;9537;45.594;9.294;2023-06-10T01:29:33;99261.38;;;22.35;66.75
18819;BME280;9537;45.594;9.294;2023-06-10T01:30:43;99264.09;;;22.35;66.87
18819;BME280;9537;45.594;9.294;2023-06-10T01:31:49;99261.91;;;22.32;67.00
18819;BME280;9537;45.594;9.294;2023-06-10T01:32:54;99261.09;;;22.31;67.17
18819;BME280;9537;45.594;9.294;2023-06-10T01:33:55;99258.69;;;22.35;67.19
18819;BME280;9537;45.594;9.294;2023-06-10T01:34:57;99263.28;;;22.34;67.31
18819;BME280;9537;45.594;9.294;2023-06-10T01:36:00;99263.28;;;22.34;67.37
18819;BME280;9537;45.594;9.294;2023-06-10T01:37:05;99259.00;;;22.38;67.22
18819;BME280;9537;45.594;9.294;2023-06-10T01:38:06;99261.94;;;22.37;67.13
18819;BME280;9537;45.594;9.294;2023-06-10T01:39:10;99269.22;;;22.36;67.25
18819;BME280;9537;45.594;9.294;2023-06-10T01:40:12;99261.16;;;22.36;67.38
18819;BME280;9537;45.594;9.294;2023-06-10T01:41:16;99264.59;;;22.32;67.73
18819;BME280;9537;45.594;9.294;2023-06-10T01:42:17;99261.09;;;22.31;67.95
18819;BME280;9537;45.594;9.294;2023-06-10T01:43:20;99257.88;;;22.29;67.99
18819;BME280;9537;45.594;9.294;2023-06-10T01:44:22;99258.69;;;22.30;67.74
18819;BME280;9537;45.594;9.294;2023-06-10T01:45:24;99260.56;;;22.29;68.00
18819;BME280;9537;45.594;9.294;2023-06-10T01:46:25;99263.00;;;22.31;68.10
18819;BME280;9537;45.594;9.294;2023-06-10T01:47:26;99262.19;;;22.30;68.67
18819;BME280;9537;45.594;9.294;2023-06-10T01:48:27;99256.00;;;22.30;68.48
18819;BME280;9537;45.594;9.294;2023-06-10T01:49:29;99260.56;;;22.29;68.46
18819;BME280;9537;45.594;9.294;2023-06-10T01:50:29;99254.63;;;22.27;68.60
18819;BME280;9537;45.594;9.294;2023-06-10T01:51:31;99258.13;;;22.27;68.81
18819;BME280;9537;45.594;9.294;2023-06-10T01:52:33;99260.31;;;22.31;68.60
18819;BME280;9537;45.594;9.294;2023-06-10T01:53:35;99250.63;;;22.30;68.81
18819;BME280;9537;45.594;9.294;2023-06-10T01:54:36;99250.63;;;22.30;69.00
18819;BME280;9537;45.594;9.294;2023-06-10T01:55:38;99253.31;;;22.30;68.91
18819;BME280;9537;45.594;9.294;2023-06-10T01:56:38;99256.53;;;22.32;68.89
18819;BME280;9537;45.594;9.294;2023-06-10T01:57:40;99251.44;;;22.30;69.10
18819;BME280;9537;45.594;9.294;2023-06-10T01:58:41;99248.19;;;22.28;69.19
18819;BME280;9537;45.594;9.294;2023-06-10T01:59:42;99244.94;;;22.26;69.36
18819;BME280;9537;45.594;9.294;2023-06-10T02:00:44;99246.56;;;22.27;69.26
18819;BME280;9537;45.594;9.294;2023-06-10T02:01:46;99242.25;;;22.26;69.12
18819;BME280;9537;45.594;9.294;2023-06-10T02:02:47;99239.53;;;22.26;69.16
18819;BME280;9537;45.594;9.294;2023-06-10T02:03:49;99245.19;;;22.24;68.97
18819;BME280;9537;45.594;9.294;2023-06-10T02:04:49;99244.69;;;22.27;68.96
18819;BME280;9537;45.594;9.294;2023-06-10T02:05:51;99239.53;;;22.26;68.99
18819;BME280;9537;45.594;9.294;2023-06-10T02:06:52;99243.31;;;22.25;69.39
18819;BME280;9537;45.594;9.294;2023-06-10T02:07:55;99248.69;;;22.25;69.29
18819;BME280;9537;45.594;9.294;2023-06-10T02:08:56;99245.19;;;22.24;69.23
18819;BME280;9537;45.594;9.294;2023-06-10T02:09:57;99242.78;;;22.28;69.18
18819;BME280;9537;45.594;9.294;2023-06-10T02:10:58;99246.56;;;22.27;69.06
18819;BME280;9537;45.594;9.294;2023-06-10T02:12:00;99232.56;;;22.25;69.12
18819;BME280;9537;45.594;9.294;2023-06-10T02:13:02;99237.94;;;22.25;69.03
18819;BME280;9537;45.594;9.294;2023-06-10T02:14:02;99233.13;;;22.27;68.94
18819;BME280;9537;45.594;9.294;2023-06-10T02:15:05;99243.31;;;22.25;68.92
18819;BME280;9537;45.594;9.294;2023-06-10T02:16:06;99237.13;;;22.24;68.87
18819;BME280;9537;45.594;9.294;2023-06-10T02:17:07;99241.44;;;22.25;68.90
18819;BME280;9537;45.594;9.294;2023-06-10T02:18:12;99239.53;;;22.26;68.65
18819;BME280;9537;45.594;9.294;2023-06-10T02:19:14;99233.34;;;22.25;68.81
18819;BME280;9537;45.594;9.294;2023-06-10T02:20:15;99237.69;;;22.26;68.79
18819;BME280;9537;45.594;9.294;2023-06-10T02:21:17;99235.25;;;22.25;69.15
18819;BME280;9537;45.594;9.294;2023-06-10T02:22:19;99241.19;;;22.27;68.98
18819;BME280;9537;45.594;9.294;2023-06-10T02:23:22;99244.41;;;22.24;69.20
18819;BME280;9537;45.594;9.294;2023-06-10T02:24:23;99239.25;;;22.22;69.52
18819;BME280;9537;45.594;9.294;2023-06-10T02:25:28;99242.75;;;22.23;69.78
18819;BME280;9537;45.594;9.294;2023-06-10T02:26:28;99243.84;;;22.22;69.42
18819;BME280;9537;45.594;9.294;2023-06-10T02:27:30;99243.31;;;22.25;69.57
18819;BME280;9537;45.594;9.294;2023-06-10T02:28:31;99245.44;;;22.23;69.51
18819;BME280;9537;45.594;9.294;2023-06-10T02:29:33;99240.91;;;22.23;69.61
18819;BME280;9537;45.594;9.294;2023-06-10T02:30:34;99233.13;;;22.27;69.74
18819;BME280;9537;45.594;9.294;2023-06-10T02:31:37;99237.41;;;22.28;69.66
18819;BME280;9537;45.594;9.294;2023-06-10T02:32:38;99243.88;;;22.27;69.68
18819;BME280;9537;45.594;9.294;2023-06-10T02:33:39;99236.59;;;22.27;69.58
18819;BME280;9537;45.594;9.294;2023-06-10T02:34:40;99241.19;;;22.27;69.66
18819;BME280;9537;45.594;9.294;2023-06-10T02:35:43;99240.63;;;22.25;69.89
18819;BME280;9537;45.594;9.294;2023-06-10T02:36:44;99238.47;;;22.22;70.08
18819;BME280;9537;45.594;9.294;2023-06-10T02:37:45;99240.06;;;22.23;69.87
18819;BME280;9537;45.594;9.294;2023-06-10T02:38:47;99243.28;;;22.20;70.04
18819;BME280;9537;45.594;9.294;2023-06-10T02:39:49;99244.34;;;22.19;70.14
18819;BME280;9537;45.594;9.294;2023-06-10T02:40:50;99240.06;;;22.23;70.05
18819;BME280;9537;45.594;9.294;2023-06-10T02:41:52;99242.22;;;22.21;70.25
18819;BME280;9537;45.594;9.294;2023-06-10T02:42:52;99233.59;;;22.19;70.30
18819;BME280;9537;45.594;9.294;2023-06-10T02:43:54;99240.06;;;22.18;70.10
18819;BME280;9537;45.594;9.294;2023-06-10T02:44:55;99236.53;;;22.17;70.25
18819;BME280;9537;45.594;9.294;2023-06-10T02:45:56;99229.22;;;22.13;70.54
18819;BME280;9537;45.594;9.294;2023-06-10T02:46:57;99229.22;;;22.13;70.47
18819;BME280;9537;45.594;9.294;2023-06-10T02:47:59;99237.59;;;22.16;70.50
18819;BME280;9537;45.594;9.294;2023-06-10T02:49:00;99236.22;;;22.14;70.81
18819;BME280;9537;45.594;9.294;2023-06-10T02:50:02;99225.97;;;22.11;71.12
18819;BME280;9537;45.594;9.294;2023-06-10T02:51:05;99225.97;;;22.11;71.05
18819;BME280;9537;45.594;9.294;2023-06-10T02:52:07;99226.03;;;22.16;71.02
18819;BME280;9537;45.594;9.294;2023-06-10T02:53:08;99230.31;;;22.17;71.02
18819;BME280;9537;45.594;9.294;2023-06-10T02:54:11;99230.31;;;22.17;71.15
18819;BME280;9537;45.594;9.294;2023-06-10T02:55:12;99226.81;;;22.16;71.38
18819;BME280;9537;45.594;9.294;2023-06-10T02:56:16;99227.91;;;22.15;71.56
18819;BME280;9537;45.594;9.294;2023-06-10T02:57:17;99221.69;;;22.15;71.32
18819;BME280;9537;45.594;9.294;2023-06-10T02:58:18;99222.53;;;22.15;71.43
18819;BME280;9537;45.594;9.294;2023-06-10T02:59:19;99223.84;;;22.13;71.48
18819;BME280;9537;45.594;9.294;2023-06-10T03:00:21;99220.59;;;22.11;71.77
18819;BME280;9537;45.594;9.294;2023-06-10T03:01:22;99220.88;;;22.09;71.78
18819;BME280;9537;45.594;9.294;2023-06-10T03:02:24;99230.56;;;22.10;71.81
18819;BME280;9537;45.594;9.294;2023-06-10T03:03:28;99227.88;;;22.10;72.08
18819;BME280;9537;45.594;9.294;2023-06-10T03:04:30;99222.47;;;22.10;71.96
18819;BME280;9537;45.594;9.294;2023-06-10T03:05:32;99219.78;;;22.10;72.00
18819;BME280;9537;45.594;9.294;2023-06-10T03:06:34;99223.25;;;22.05;72.41
18819;BME280;9537;45.594;9.294;2023-06-10T03:07:36;99220.84;;;22.04;72.59
18819;BME280;9537;45.594;9.294;2023-06-10T03:08:38;99223.78;;;22.02;72.79
18819;BME280;9537;45.594;9.294;2023-06-10T03:09:40;99225.09;;;22.00;72.81
18819;BME280;9537;45.594;9.294;2023-06-10T03:10:42;99223.22;;;22.00;72.81
18819;BME280;9537;45.594;9.294;2023-06-10T03:11:43;99229.41;;;22.01;73.05
18819;BME280;9537;45.594;9.294;2023-06-10T03:12:45;99231.28;;;22.00;73.14
18819;BME280;9537;45.594;9.294;2023-06-10T03:13:46;99226.16;;;21.99;73.23
18819;BME280;9537;45.594;9.294;2023-06-10T03:14:47;99220.53;;;22.00;73.10
18819;BME280;9537;45.594;9.294;2023-06-10T03:15:48;99224.28;;;21.99;72.98
18819;BME280;9537;45.594;9.294;2023-06-10T03:16:50;99221.09;;;22.02;72.91
18819;BME280;9537;45.594;9.294;2023-06-10T03:17:51;99217.03;;;22.00;73.03
18819;BME280;9537;45.594;9.294;2023-06-10T03:18:53;99224.84;;;22.01;72.96
18819;BME280;9537;45.594;9.294;2023-06-10T03:19:57;99221.34;;;22.01;73.12
18819;BME280;9537;45.594;9.294;2023-06-10T03:20:58;99223.22;;;22.00;73.14
18819;BME280;9537;45.594;9.294;2023-06-10T03:22:07;99221.34;;;22.01;73.17
18819;BME280;9537;45.594;9.294;2023-06-10T03:23:09;99222.16;;;22.01;73.25
18819;BME280;9537;45.594;9.294;2023-06-10T03:24:10;99218.38;;;22.02;73.14
18819;BME280;9537;45.594;9.294;2023-06-10T03:25:14;99223.53;;;22.04;73.06
18819;BME280;9537;45.594;9.294;2023-06-10T03:26:15;99219.19;;;22.03;72.91
18819;BME280;9537;45.594;9.294;2023-06-10T03:27:17;99217.34;;;22.03;73.07
18819;BME280;9537;45.594;9.294;2023-06-10T03:28:18;99216.50;;;22.03;73.21
18819;BME280;9537;45.594;9.294;2023-06-10T03:29:19;99218.16;;;22.04;73.33
18819;BME280;9537;45.594;9.294;2023-06-10T03:30:21;99220.03;;;22.03;73.38
18819;BME280;9537;45.594;9.294;2023-06-10T03:31:23;99218.66;;;22.01;73.72
18819;BME280;9537;45.594;9.294;2023-06-10T03:32:25;99223.47;;;21.99;73.72
18819;BME280;9537;45.594;9.294;2023-06-10T03:33:27;99223.44;;;21.94;73.98
18819;BME280;9537;45.594;9.294;2023-06-10T03:34:27;99222.38;;;21.95;73.92
18819;BME280;9537;45.594;9.294;2023-06-10T03:35:30;99218.88;;;21.94;73.69
18819;BME280;9537;45.594;9.294;2023-06-10T03:36:31;99227.19;;;21.93;73.61
18819;BME280;9537;45.594;9.294;2023-06-10T03:37:33;99226.41;;;21.92;73.76
18819;BME280;9537;45.594;9.294;2023-06-10T03:38:34;99226.13;;;21.94;73.83
18819;BME280;9537;45.594;9.294;2023-06-10T03:39:36;99225.31;;;21.93;73.86
18819;BME280;9537;45.594;9.294;2023-06-10T03:40:39;99225.31;;;21.93;73.92
18819;BME280;9537;45.594;9.294;2023-06-10T03:41:40;99222.88;;;21.92;73.97
18819;BME280;9537;45.594;9.294;2023-06-10T03:42:41;99220.47;;;21.90;74.10
18819;BME280;9537;45.594;9.294;2023-06-10T03:43:44;99222.88;;;21.92;73.88
18819;BME280;9537;45.594;9.294;2023-06-10T03:44:44;99223.72;;;21.92;74.05
18819;BME280;9537;45.594;9.294;2023-06-10T03:45:46;99227.44;;;21.91;74.06
18819;BME280;9537;45.594;9.294;2023-06-10T03:46:49;99226.66;;;21.91;74.06
18819;BME280;9537;45.594;9.294;2023-06-10T03:47:52;99224.22;;;21.89;74.31
18819;BME280;9537;45.594;9.294;2023-06-10T03:48:53;99235.78;;;21.90;74.00
18819;BME280;9537;45.594;9.294;2023-06-10T03:49:54;99227.97;;;21.88;74.17
18819;BME280;9537;45.594;9.294;2023-06-10T03:50:56;99236.03;;;21.88;74.12
18819;BME280;9537;45.594;9.294;2023-06-10T03:51:58;99241.41;;;21.88;74.30
18819;BME280;9537;45.594;9.294;2023-06-10T03:53:00;99241.16;;;21.90;74.00
18819;BME280;9537;45.594;9.294;2023-06-10T03:54:01;99234.16;;;21.89;74.23
18819;BME280;9537;45.594;9.294;2023-06-10T03:55:03;99231.47;;;21.89;73.90
18819;BME280;9537;45.594;9.294;2023-06-10T03:56:07;99235.50;;;21.91;73.93
18819;BME280;9537;45.594;9.294;2023-06-10T03:57:08;99235.28;;;21.93;73.83
18819;BME280;9537;45.594;9.294;2023-06-10T03:58:10;99236.88;;;21.94;73.74
18819;BME280;9537;45.594;9.294;2023-06-10T03:59:13;99235.84;;;21.95;73.56
18819;BME280;9537;45.594;9.294;2023-06-10T04:00:16;99236.06;;;21.93;73.76
18819;BME280;9537;45.594;9.294;2023-06-10T04:01:17;99240.88;;;21.91;74.05
18819;BME280;9537;45.594;9.294;2023-06-10T04:02:21;99237.16;;;21.92;74.08
18819;BME280;9537;45.594;9.294;2023-06-10T04:03:22;99235.50;;;21.91;74.09
18819;BME280;9537;45.594;9.294;2023-06-10T04:04:24;99246.53;;;21.90;74.27
18819;BME280;9537;45.594;9.294;2023-06-10T04:05:25;99238.16;;;21.86;74.38
18819;BME280;9537;45.594;9.294;2023-06-10T04:06:29;99237.63;;;21.84;74.52
18819;BME280;9537;45.594;9.294;2023-06-10T04:07:29;99238.66;;;21.83;74.86
18819;BME280;9537;45.594;9.294;2023-06-10T04:08:32;99237.63;;;21.84;74.69
18819;BME280;9537;45.594;9.294;2023-06-10T04:09:33;99235.47;;;21.86;74.64
18819;BME280;9537;45.594;9.294;2023-06-10T04:10:36;99234.16;;;21.89;74.60
18819;BME280;9537;45.594;9.294;2023-06-10T04:11:38;99235.22;;;21.88;74.70
18819;BME280;9537;45.594;9.294;2023-06-10T04:12:41;99243.00;;;21.84;75.11
18819;BME280;9537;45.594;9.294;2023-06-10T04:13:42;99231.69;;;21.82;75.16
18819;BME280;9537;45.594;9.294;2023-06-10T04:14:44;99236.78;;;21.78;75.47
18819;BME280;9537;45.594;9.294;2023-06-10T04:15:44;99234.88;;;21.79;75.28
18819;BME280;9537;45.594;9.294;2023-06-10T04:16:46;99232.72;;;21.76;75.44
18819;BME280;9537;45.594;9.294;2023-06-10T04:17:47;99233.00;;;21.79;74.04
18819;BME280;9537;45.594;9.294;2023-06-10T04:18:49;99241.06;;;21.79;74.04
18819;BME280;9537;45.594;9.294;2023-06-10T04:19:50;99234.88;;;21.79;74.17
18819;BME280;9537;45.594;9.294;2023-06-10T04:20:52;99238.66;;;21.78;74.14
18819;BME280;9537;45.594;9.294;2023-06-10T04:21:53;99233.28;;;21.78;74.28
18819;BME280;9537;45.594;9.294;2023-06-10T04:22:55;99240.25;;;21.79;74.35
18819;BME280;9537;45.594;9.294;2023-06-10T04:23:55;99227.91;;;21.78;74.85
18819;BME280;9537;45.594;9.294;2023-06-10T04:24:57;99242.66;;;21.75;74.87
18819;BME280;9537;45.594;9.294;2023-06-10T04:25:59;99229.22;;;21.75;75.06
18819;BME280;9537;45.594;9.294;2023-06-10T04:27:04;99227.84;;;21.73;75.44
18819;BME280;9537;45.594;9.294;2023-06-10T04:28:05;99228.41;;;21.75;75.34
18819;BME280;9537;45.594;9.294;2023-06-10T04:29:07;99231.09;;;21.75;75.77
18819;BME280;9537;45.594;9.294;2023-06-10T04:30:08;99226.78;;;21.74;76.08
18819;BME280;9537;45.594;9.294;2023-06-10T04:31:10;99220.59;;;21.73;76.05
18819;BME280;9537;45.594;9.294;2023-06-10T04:32:12;99226.22;;;21.72;76.22
18819;BME280;9537;45.594;9.294;2023-06-10T04:33:13;99222.72;;;21.71;76.64
18819;BME280;9537;45.594;9.294;2023-06-10T04:34:14;99225.16;;;21.73;76.28
18819;BME280;9537;45.594;9.294;2023-06-10T04:35:16;99229.47;;;21.74;76.24
18819;BME280;9537;45.594;9.294;2023-06-10T04:36:17;99231.34;;;21.73;76.19
18819;BME280;9537;45.594;9.294;2023-06-10T04:37:19;99221.16;;;21.75;75.91
18819;BME280;9537;45.594;9.294;2023-06-10T04:38:20;99223.84;;;21.75;75.87
18819;BME280;9537;45.594;9.294;2023-06-10T04:39:22;99220.88;;;21.77;75.92
18819;BME280;9537;45.594;9.294;2023-06-10T04:40:23;99224.38;;;21.77;75.85
18819;BME280;9537;45.594;9.294;2023-06-10T04:41:24;99224.13;;;21.79;75.72
18819;BME280;9537;45.594;9.294;2023-06-10T04:42:28;99223.34;;;21.78;75.67
18819;BME280;9537;45.594;9.294;2023-06-10T04:43:30;99226.81;;;21.79;75.53
18819;BME280;9537;45.594;9.294;2023-06-10T04:44:31;99231.97;;;21.80;75.65
18819;BME280;9537;45.594;9.294;2023-06-10T04:45:32;99227.91;;;21.83;75.49
18819;BME280;9537;45.594;9.294;2023-06-10T04:46:33;99225.00;;;21.85;75.59
18819;BME280;9537;45.594;9.294;2023-06-10T04:47:35;99226.06;;;21.84;75.79
18819;BME280;9537;45.594;9.294;2023-06-10T04:48:36;99229.00;;;21.82;76.00
18819;BME280;9537;45.594;9.294;2023-06-10T04:49:38;99225.78;;;21.85;76.11
18819;BME280;9537;45.594;9.294;2023-06-10T04:50:39;99226.59;;;21.86;76.13
18819;BME280;9537;45.594;9.294;2023-06-10T04:51:41;99227.41;;;21.86;76.28
18819;BME280;9537;45.594;9.294;2023-06-10T04:52:42;99227.69;;;21.85;76.24
18819;BME280;9537;45.594;9.294;2023-06-10T04:53:44;99225.00;;;21.85;76.47
18819;BME280;9537;45.594;9.294;2023-06-10T04:54:45;99225.56;;;21.87;76.31
18819;BME280;9537;45.594;9.294;2023-06-10T04:55:48;99224.72;;;21.86;76.14
18819;BME280;9537;45.594;9.294;2023-06-10T04:56:49;99226.59;;;21.86;76.31
18819;BME280;9537;45.594;9.294;2023-06-10T04:57:52;99223.91;;;21.86;75.98
18819;BME280;9537;45.594;9.294;2023-06-10T04:58:53;99229.81;;;21.82;76.02
18819;BME280;9537;45.594;9.294;2023-06-10T04:59:55;99226.88;;;21.84;75.97
18819;BME280;9537;45.594;9.294;2023-06-10T05:00:58;99225.00;;;21.85;76.24
18819;BME280;9537;45.594;9.294;2023-06-10T05:02:00;99231.16;;;21.85;76.23
18819;BME280;9537;45.594;9.294;2023-06-10T05:03:01;99224.72;;;21.86;76.46
18819;BME280;9537;45.594;9.294;2023-06-10T05:04:02;99227.97;;;21.88;76.04
18819;BME280;9537;45.594;9.294;2023-06-10T05:05:05;99225.28;;;21.88;75.93
18819;BME280;9537;45.594;9.294;2023-06-10T05:06:07;99229.59;;;21.89;75.33
18819;BME280;9537;45.594;9.294;2023-06-10T05:07:07;99230.41;;;21.90;75.34
18819;BME280;9537;45.594;9.294;2023-06-10T05:08:09;99228.53;;;21.90;75.26
18819;BME280;9537;45.594;9.294;2023-06-10T05:09:10;99230.13;;;21.91;75.35
18819;BME280;9537;45.594;9.294;2023-06-10T05:10:12;99233.38;;;21.93;75.41
18819;BME280;9537;45.594;9.294;2023-06-10T05:11:12;99230.69;;;21.93;75.70
18819;BME280;9537;45.594;9.294;2023-06-10T05:12:14;99232.31;;;21.94;76.04
18819;BME280;9537;45.594;9.294;2023-06-10T05:13:17;99225.88;;;21.95;75.93
18819;BME280;9537;45.594;9.294;2023-06-10T05:14:18;99224.56;;;21.98;75.03
18819;BME280;9537;45.594;9.294;2023-06-10T05:15:21;99223.72;;;21.97;74.95
18819;BME280;9537;45.594;9.294;2023-06-10T05:16:23;99224.56;;;22.03;74.64
18819;BME280;9537;45.594;9.294;2023-06-10T05:17:24;99218.38;;;22.02;74.42
18819;BME280;9537;45.594;9.294;2023-06-10T05:18:26;99224.84;;;22.01;74.52
18819;BME280;9537;45.594;9.294;2023-06-10T05:19:26;99218.38;;;22.02;73.71
18819;BME280;9537;45.594;9.294;2023-06-10T05:20:28;99229.16;;;22.02;73.65
18819;BME280;9537;45.594;9.294;2023-06-10T05:21:29;99222.16;;;22.01;73.97
18819;BME280;9537;45.594;9.294;2023-06-10T05:22:31;99221.59;;;21.99;73.96
18819;BME280;9537;45.594;9.294;2023-06-10T05:23:32;99225.66;;;22.02;73.83
18819;BME280;9537;45.594;9.294;2023-06-10T05:24:33;99226.22;;;22.04;74.19
18819;BME280;9537;45.594;9.294;2023-06-10T05:25:34;99225.41;;;22.03;74.14
18819;BME280;9537;45.594;9.294;2023-06-10T05:26:36;99227.03;;;22.04;74.25
18819;BME280;9537;45.594;9.294;2023-06-10T05:27:37;99227.31;;;22.08;73.73
18819;BME280;9537;45.594;9.294;2023-06-10T05:28:43;99228.09;;;22.09;73.63
18819;BME280;9537;45.594;9.294;2023-06-10T05:29:44;99225.97;;;22.11;73.51
18819;BME280;9537;45.594;9.294;2023-06-10T05:30:45;99235.66;;;22.12;73.21
18819;BME280;9537;45.594;9.294;2023-06-10T05:31:46;99230.31;;;22.17;72.62
18819;BME280;9537;45.594;9.294;2023-06-10T05:32:48;99234.91;;;22.16;72.59
18819;BME280;9537;45.594;9.294;2023-06-10T05:33:49;99236.28;;;22.19;72.28
18819;BME280;9537;45.594;9.294;2023-06-10T05:34:50;99234.69;;;22.18;72.30
18819;BME280;9537;45.594;9.294;2023-06-10T05:35:51;99231.91;;;22.13;72.70
18819;BME280;9537;45.594;9.294;2023-06-10T05:36:53;99240.78;;;22.13;72.84
18819;BME280;9537;45.594;9.294;2023-06-10T05:37:53;99233.81;;;22.12;72.96
18819;BME280;9537;45.594;9.294;2023-06-10T05:38:55;99236.50;;;22.12;73.06
18819;BME280;9537;45.594;9.294;2023-06-10T05:39:56;99241.34;;;22.15;73.35
18819;BME280;9537;45.594;9.294;2023-06-10T05:40:57;99245.44;;;22.18;73.22
18819;BME280;9537;45.594;9.294;2023-06-10T05:41:59;99245.66;;;22.16;73.26